sensor_id;sensor_type;location;lat;lon;timestamp;P1;durP1;ratioP1;P2;durP2;ratioP2
31482;SDS011;18103;52.246;8.052;2022-07-29T00:02:05;2.83;;;1.17;;
31482;SDS011;18103;52.246;8.052;2022-07-29T00:04:30;3.37;;;0.87;;
31482;SDS011;18103;52.246;8.052;2022-07-29T00:06:59;1.03;;;0.93;;
31482;SDS011;18103;52.246;8.052;2022-07-29T00:09:24;3.23;;;0.97;;
31482;SDS011;18103;52.246;8.052;2022-07-29T00:11:50;5.97;;;1.70;;
31482;SDS011;18103;52.246;8.052;2022-07-29T00:14:15;3.10;;;1.17;;
31482;SDS011;18103;52.246;8.052;2022-07-29T00:16:40;6.23;;;1.20;;
31482;SDS011;18103;52.246;8.052;2022-07-29T00:19:06;3.20;;;1.17;;
31482;SDS011;18103;52.246;8.052;2022-07-29T00:21:31;4.37;;;1.10;;
31482;SDS011;18103;52.246;8.052;2022-07-29T00:23:57;1.77;;;0.97;;
31482;SDS011;18103;52.246;8.052;2022-07-29T00:26:22;4.63;;;1.47;;
31482;SDS011;18103;52.246;8.052;2022-07-29T00:28:47;4.30;;;1.37;;
31482;SDS011;18103;52.246;8.052;2022-07-29T00:31:13;2.80;;;1.23;;
31482;SDS011;18103;52.246;8.052;2022-07-29T00:33:38;3.47;;;0.90;;
31482;SDS011;18103;52.246;8.052;2022-07-29T00:36:04;3.17;;;1.13;;
31482;SDS011;18103;52.246;8.052;2022-07-29T00:38:29;2.23;;;0.73;;
31482;SDS011;18103;52.246;8.052;2022-07-29T00:40:55;6.23;;;1.23;;
31482;SDS011;18103;52.246;8.052;2022-07-29T00:43:20;10.30;;;1.70;;
31482;SDS011;18103;52.246;8.052;2022-07-29T00:45:45;2.30;;;1.00;;
31482;SDS011;18103;52.246;8.052;2022-07-29T00:48:11;1.03;;;0.77;;
31482;SDS011;18103;52.246;8.052;2022-07-29T00:50:37;1.77;;;0.93;;
31482;SDS011;18103;52.246;8.052;2022-07-29T00:53:03;2.50;;;1.47;;
31482;SDS011;18103;52.246;8.052;2022-07-29T00:55:31;5.60;;;0.90;;
31482;SDS011;18103;52.246;8.052;2022-07-29T00:57:57;4.03;;;1.00;;
31482;SDS011;18103;52.246;8.052;2022-07-29T01:00:23;4.17;;;1.00;;
31482;SDS011;18103;52.246;8.052;2022-07-29T01:02:50;4.10;;;1.20;;
31482;SDS011;18103;52.246;8.052;2022-07-29T01:05:17;2.77;;;1.30;;
31482;SDS011;18103;52.246;8.052;2022-07-29T01:07:45;4.33;;;1.10;;
31482;SDS011;18103;52.246;8.052;2022-07-29T01:10:13;5.80;;;1.30;;
31482;SDS011;18103;52.246;8.052;2022-07-29T01:12:41;3.17;;;1.00;;
31482;SDS011;18103;52.246;8.052;2022-07-29T01:15:08;3.77;;;1.20;;
31482;SDS011;18103;52.246;8.052;2022-07-29T01:30:46;7.40;;;1.27;;
31482;SDS011;18103;52.246;8.052;2022-07-29T01:33:15;6.73;;;1.60;;
31482;SDS011;18103;52.246;8.052;2022-07-29T01:36:02;3.77;;;1.00;;
31482;SDS011;18103;52.246;8.052;2022-07-29T01:38:42;3.77;;;1.30;;
31482;SDS011;18103;52.246;8.052;2022-07-29T01:41:15;3.00;;;1.50;;
31482;SDS011;18103;52.246;8.052;2022-07-29T01:43:53;5.23;;;1.20;;
31482;SDS011;18103;52.246;8.052;2022-07-29T01:46:27;2.40;;;1.17;;
31482;SDS011;18103;52.246;8.052;2022-07-29T01:49:03;2.27;;;1.00;;
31482;SDS011;18103;52.246;8.052;2022-07-29T01:51:35;5.03;;;0.90;;
31482;SDS011;18103;52.246;8.052;2022-07-29T01:54:10;3.33;;;1.47;;
31482;SDS011;18103;52.246;8.052;2022-07-29T01:56:47;1.73;;;1.13;;
31482;SDS011;18103;52.246;8.052;2022-07-29T01:59:19;2.17;;;0.90;;
31482;SDS011;18103;52.246;8.052;2022-07-29T02:01:46;3.37;;;1.20;;
31482;SDS011;18103;52.246;8.052;2022-07-29T02:04:12;3.67;;;1.03;;
31482;SDS011;18103;52.246;8.052;2022-07-29T02:06:41;2.60;;;0.90;;
31482;SDS011;18103;52.246;8.052;2022-07-29T02:09:09;2.20;;;1.10;;
31482;SDS011;18103;52.246;8.052;2022-07-29T02:11:36;4.13;;;1.50;;
31482;SDS011;18103;52.246;8.052;2022-07-29T02:14:03;3.67;;;1.20;;
31482;SDS011;18103;52.246;8.052;2022-07-29T02:16:30;2.60;;;0.90;;
31482;SDS011;18103;52.246;8.052;2022-07-29T02:18:58;5.30;;;1.13;;
31482;SDS011;18103;52.246;8.052;2022-07-29T02:21:26;8.13;;;1.40;;
31482;SDS011;18103;52.246;8.052;2022-07-29T02:23:54;1.73;;;1.17;;
31482;SDS011;18103;52.246;8.052;2022-07-29T02:26:25;8.90;;;1.47;;
31482;SDS011;18103;52.246;8.052;2022-07-29T02:28:52;3.43;;;1.23;;
31482;SDS011;18103;52.246;8.052;2022-07-29T02:31:21;1.90;;;1.10;;
31482;SDS011;18103;52.246;8.052;2022-07-29T02:33:49;2.33;;;1.37;;
31482;SDS011;18103;52.246;8.052;2022-07-29T02:36:16;8.13;;;0.93;;
31482;SDS011;18103;52.246;8.052;2022-07-29T02:38:42;1.70;;;1.30;;
31482;SDS011;18103;52.246;8.052;2022-07-29T02:41:16;3.40;;;1.40;;
31482;SDS011;18103;52.246;8.052;2022-07-29T02:43:48;4.43;;;1.23;;
31482;SDS011;18103;52.246;8.052;2022-07-29T02:46:19;3.50;;;1.23;;
31482;SDS011;18103;52.246;8.052;2022-07-29T02:48:55;1.50;;;0.97;;
31482;SDS011;18103;52.246;8.052;2022-07-29T02:51:36;6.27;;;1.20;;
31482;SDS011;18103;52.246;8.052;2022-07-29T02:54:08;6.30;;;1.50;;
31482;SDS011;18103;52.246;8.052;2022-07-29T02:56:55;5.23;;;1.17;;
31482;SDS011;18103;52.246;8.052;2022-07-29T02:59:24;3.13;;;1.00;;
31482;SDS011;18103;52.246;8.052;2022-07-29T03:01:52;1.43;;;0.80;;
31482;SDS011;18103;52.246;8.052;2022-07-29T03:04:20;1.23;;;1.13;;
31482;SDS011;18103;52.246;8.052;2022-07-29T03:06:47;2.00;;;1.20;;
31482;SDS011;18103;52.246;8.052;2022-07-29T03:09:14;3.70;;;1.20;;
31482;SDS011;18103;52.246;8.052;2022-07-29T03:11:40;2.20;;;1.10;;
31482;SDS011;18103;52.246;8.052;2022-07-29T03:14:07;2.20;;;1.00;;
31482;SDS011;18103;52.246;8.052;2022-07-29T03:16:33;5.33;;;1.17;;
31482;SDS011;18103;52.246;8.052;2022-07-29T03:19:01;3.27;;;1.30;;
31482;SDS011;18103;52.246;8.052;2022-07-29T03:21:27;5.47;;;1.17;;
31482;SDS011;18103;52.246;8.052;2022-07-29T03:23:55;2.50;;;0.93;;
31482;SDS011;18103;52.246;8.052;2022-07-29T03:26:20;1.10;;;0.93;;
31482;SDS011;18103;52.246;8.052;2022-07-29T03:28:46;3.30;;;1.30;;
31482;SDS011;18103;52.246;8.052;2022-07-29T03:31:11;2.70;;;1.17;;
31482;SDS011;18103;52.246;8.052;2022-07-29T03:33:36;3.67;;;1.10;;
31482;SDS011;18103;52.246;8.052;2022-07-29T03:36:02;5.57;;;1.20;;
31482;SDS011;18103;52.246;8.052;2022-07-29T03:38:27;5.07;;;0.97;;
31482;SDS011;18103;52.246;8.052;2022-07-29T03:40:58;4.43;;;1.13;;
31482;SDS011;18103;52.246;8.052;2022-07-29T03:43:29;5.03;;;1.10;;
31482;SDS011;18103;52.246;8.052;2022-07-29T03:45:59;4.13;;;1.43;;
31482;SDS011;18103;52.246;8.052;2022-07-29T03:48:27;2.03;;;0.97;;
31482;SDS011;18103;52.246;8.052;2022-07-29T03:50:55;3.47;;;1.10;;
31482;SDS011;18103;52.246;8.052;2022-07-29T03:53:20;7.87;;;1.23;;
31482;SDS011;18103;52.246;8.052;2022-07-29T03:55:50;4.03;;;1.20;;
31482;SDS011;18103;52.246;8.052;2022-07-29T03:58:19;3.30;;;1.87;;
31482;SDS011;18103;52.246;8.052;2022-07-29T04:00:46;3.00;;;1.10;;
31482;SDS011;18103;52.246;8.052;2022-07-29T04:03:12;2.73;;;0.90;;
31482;SDS011;18103;52.246;8.052;2022-07-29T04:05:41;1.23;;;0.80;;
31482;SDS011;18103;52.246;8.052;2022-07-29T04:08:07;2.87;;;1.20;;
31482;SDS011;18103;52.246;8.052;2022-07-29T04:10:35;1.27;;;1.10;;
31482;SDS011;18103;52.246;8.052;2022-07-29T04:13:04;3.77;;;1.00;;
31482;SDS011;18103;52.246;8.052;2022-07-29T04:15:29;2.57;;;1.10;;
31482;SDS011;18103;52.246;8.052;2022-07-29T04:17:55;5.33;;;1.20;;
31482;SDS011;18103;52.246;8.052;2022-07-29T04:20:20;5.50;;;1.20;;
31482;SDS011;18103;52.246;8.052;2022-07-29T04:22:45;3.53;;;1.10;;
31482;SDS011;18103;52.246;8.052;2022-07-29T04:25:11;3.63;;;1.20;;
31482;SDS011;18103;52.246;8.052;2022-07-29T04:27:36;3.37;;;1.10;;
31482;SDS011;18103;52.246;8.052;2022-07-29T04:30:21;3.43;;;1.47;;
31482;SDS011;18103;52.246;8.052;2022-07-29T04:32:47;4.20;;;1.37;;
31482;SDS011;18103;52.246;8.052;2022-07-29T04:35:12;4.30;;;1.50;;
31482;SDS011;18103;52.246;8.052;2022-07-29T04:37:37;4.93;;;1.30;;
31482;SDS011;18103;52.246;8.052;2022-07-29T04:40:03;2.53;;;1.10;;
31482;SDS011;18103;52.246;8.052;2022-07-29T04:42:28;4.30;;;0.77;;
31482;SDS011;18103;52.246;8.052;2022-07-29T04:44:57;2.00;;;1.00;;
31482;SDS011;18103;52.246;8.052;2022-07-29T04:47:22;2.20;;;1.20;;
31482;SDS011;18103;52.246;8.052;2022-07-29T04:49:47;4.37;;;1.33;;
31482;SDS011;18103;52.246;8.052;2022-07-29T04:52:13;3.50;;;1.20;;
31482;SDS011;18103;52.246;8.052;2022-07-29T04:54:38;1.93;;;1.10;;
31482;SDS011;18103;52.246;8.052;2022-07-29T04:57:03;4.07;;;1.57;;
31482;SDS011;18103;52.246;8.052;2022-07-29T04:59:31;3.27;;;1.23;;
31482;SDS011;18103;52.246;8.052;2022-07-29T05:01:57;7.03;;;1.07;;
31482;SDS011;18103;52.246;8.052;2022-07-29T05:04:22;6.63;;;1.03;;
31482;SDS011;18103;52.246;8.052;2022-07-29T05:06:48;3.53;;;1.70;;
31482;SDS011;18103;52.246;8.052;2022-07-29T05:09:14;5.70;;;1.10;;
31482;SDS011;18103;52.246;8.052;2022-07-29T05:11:39;1.77;;;1.03;;
31482;SDS011;18103;52.246;8.052;2022-07-29T05:14:08;2.93;;;0.90;;
31482;SDS011;18103;52.246;8.052;2022-07-29T05:16:33;3.60;;;0.87;;
31482;SDS011;18103;52.246;8.052;2022-07-29T05:18:58;2.53;;;1.13;;
31482;SDS011;18103;52.246;8.052;2022-07-29T05:21:24;1.43;;;1.00;;
31482;SDS011;18103;52.246;8.052;2022-07-29T05:23:52;2.30;;;1.20;;
31482;SDS011;18103;52.246;8.052;2022-07-29T05:26:18;1.23;;;0.90;;
31482;SDS011;18103;52.246;8.052;2022-07-29T05:28:46;1.73;;;1.00;;
31482;SDS011;18103;52.246;8.052;2022-07-29T05:31:11;3.57;;;0.87;;
31482;SDS011;18103;52.246;8.052;2022-07-29T05:33:36;4.20;;;1.30;;
31482;SDS011;18103;52.246;8.052;2022-07-29T05:36:05;3.17;;;1.10;;
31482;SDS011;18103;52.246;8.052;2022-07-29T05:38:31;3.13;;;1.33;;
31482;SDS011;18103;52.246;8.052;2022-07-29T05:40:58;2.37;;;1.10;;
31482;SDS011;18103;52.246;8.052;2022-07-29T05:43:26;3.57;;;1.10;;
31482;SDS011;18103;52.246;8.052;2022-07-29T05:45:55;7.03;;;1.03;;
31482;SDS011;18103;52.246;8.052;2022-07-29T05:48:20;3.00;;;1.40;;
31482;SDS011;18103;52.246;8.052;2022-07-29T05:50:46;5.10;;;1.40;;
31482;SDS011;18103;52.246;8.052;2022-07-29T05:53:11;3.90;;;1.00;;
31482;SDS011;18103;52.246;8.052;2022-07-29T05:55:36;3.27;;;1.20;;
31482;SDS011;18103;52.246;8.052;2022-07-29T05:58:02;10.17;;;1.60;;
31482;SDS011;18103;52.246;8.052;2022-07-29T06:00:27;5.23;;;1.30;;
31482;SDS011;18103;52.246;8.052;2022-07-29T06:02:53;3.47;;;1.20;;
31482;SDS011;18103;52.246;8.052;2022-07-29T06:05:18;2.40;;;1.00;;
31482;SDS011;18103;52.246;8.052;2022-07-29T06:07:44;5.03;;;1.30;;
31482;SDS011;18103;52.246;8.052;2022-07-29T06:10:12;4.53;;;1.30;;
31482;SDS011;18103;52.246;8.052;2022-07-29T06:12:37;2.00;;;1.00;;
31482;SDS011;18103;52.246;8.052;2022-07-29T06:15:06;5.67;;;1.40;;
31482;SDS011;18103;52.246;8.052;2022-07-29T06:17:32;9.20;;;1.40;;
31482;SDS011;18103;52.246;8.052;2022-07-29T06:19:57;2.17;;;1.30;;
31482;SDS011;18103;52.246;8.052;2022-07-29T06:22:22;2.83;;;1.27;;
31482;SDS011;18103;52.246;8.052;2022-07-29T06:24:48;3.60;;;1.10;;
31482;SDS011;18103;52.246;8.052;2022-07-29T06:27:14;2.37;;;1.20;;
31482;SDS011;18103;52.246;8.052;2022-07-29T06:29:41;5.67;;;1.30;;
31482;SDS011;18103;52.246;8.052;2022-07-29T06:32:06;3.97;;;1.27;;
31482;SDS011;18103;52.246;8.052;2022-07-29T06:34:33;7.57;;;1.10;;
31482;SDS011;18103;52.246;8.052;2022-07-29T06:36:59;4.47;;;1.20;;
31482;SDS011;18103;52.246;8.052;2022-07-29T06:39:25;2.07;;;1.10;;
31482;SDS011;18103;52.246;8.052;2022-07-29T06:41:50;4.47;;;1.70;;
31482;SDS011;18103;52.246;8.052;2022-07-29T06:44:16;3.13;;;0.97;;
31482;SDS011;18103;52.246;8.052;2022-07-29T06:46:42;3.73;;;1.03;;
31482;SDS011;18103;52.246;8.052;2022-07-29T06:49:08;3.60;;;1.30;;
31482;SDS011;18103;52.246;8.052;2022-07-29T06:51:34;3.43;;;1.30;;
31482;SDS011;18103;52.246;8.052;2022-07-29T06:54:01;2.47;;;1.27;;
31482;SDS011;18103;52.246;8.052;2022-07-29T06:56:27;3.90;;;1.30;;
31482;SDS011;18103;52.246;8.052;2022-07-29T06:58:53;5.00;;;1.40;;
31482;SDS011;18103;52.246;8.052;2022-07-29T07:01:18;11.33;;;1.77;;
31482;SDS011;18103;52.246;8.052;2022-07-29T07:03:44;4.57;;;1.27;;
31482;SDS011;18103;52.246;8.052;2022-07-29T07:06:10;3.00;;;1.27;;
31482;SDS011;18103;52.246;8.052;2022-07-29T07:08:35;4.50;;;1.00;;
31482;SDS011;18103;52.246;8.052;2022-07-29T07:11:00;2.73;;;1.23;;
31482;SDS011;18103;52.246;8.052;2022-07-29T07:13:26;2.57;;;0.83;;
31482;SDS011;18103;52.246;8.052;2022-07-29T07:15:53;2.37;;;0.90;;
31482;SDS011;18103;52.246;8.052;2022-07-29T07:18:18;5.77;;;1.10;;
31482;SDS011;18103;52.246;8.052;2022-07-29T07:20:43;5.53;;;1.13;;
31482;SDS011;18103;52.246;8.052;2022-07-29T07:23:10;2.77;;;1.30;;
31482;SDS011;18103;52.246;8.052;2022-07-29T07:25:35;3.50;;;1.30;;
31482;SDS011;18103;52.246;8.052;2022-07-29T07:28:01;1.70;;;1.00;;
31482;SDS011;18103;52.246;8.052;2022-07-29T07:30:27;4.37;;;1.17;;
31482;SDS011;18103;52.246;8.052;2022-07-29T07:32:52;3.47;;;1.30;;
31482;SDS011;18103;52.246;8.052;2022-07-29T07:35:18;5.23;;;1.23;;
31482;SDS011;18103;52.246;8.052;2022-07-29T07:37:44;1.93;;;1.07;;
31482;SDS011;18103;52.246;8.052;2022-07-29T07:40:10;2.77;;;1.20;;
31482;SDS011;18103;52.246;8.052;2022-07-29T07:42:39;5.00;;;1.30;;
31482;SDS011;18103;52.246;8.052;2022-07-29T07:45:05;4.37;;;1.40;;
31482;SDS011;18103;52.246;8.052;2022-07-29T07:47:34;5.73;;;1.10;;
31482;SDS011;18103;52.246;8.052;2022-07-29T07:50:00;4.10;;;1.47;;
31482;SDS011;18103;52.246;8.052;2022-07-29T07:52:25;4.67;;;1.20;;
31482;SDS011;18103;52.246;8.052;2022-07-29T07:54:53;2.27;;;1.20;;
31482;SDS011;18103;52.246;8.052;2022-07-29T07:57:19;4.37;;;1.53;;
31482;SDS011;18103;52.246;8.052;2022-07-29T07:59:44;4.83;;;1.10;;
31482;SDS011;18103;52.246;8.052;2022-07-29T08:02:09;2.53;;;1.00;;
31482;SDS011;18103;52.246;8.052;2022-07-29T08:04:35;7.17;;;0.80;;
31482;SDS011;18103;52.246;8.052;2022-07-29T08:07:01;4.07;;;1.27;;
31482;SDS011;18103;52.246;8.052;2022-07-29T08:09:27;3.33;;;1.13;;
31482;SDS011;18103;52.246;8.052;2022-07-29T08:11:54;5.17;;;1.40;;
31482;SDS011;18103;52.246;8.052;2022-07-29T08:14:20;2.13;;;1.00;;
31482;SDS011;18103;52.246;8.052;2022-07-29T08:16:45;3.97;;;1.13;;
31482;SDS011;18103;52.246;8.052;2022-07-29T08:19:14;5.67;;;1.33;;
31482;SDS011;18103;52.246;8.052;2022-07-29T08:21:39;6.90;;;1.83;;
31482;SDS011;18103;52.246;8.052;2022-07-29T08:24:05;3.10;;;1.23;;
31482;SDS011;18103;52.246;8.052;2022-07-29T08:26:49;7.57;;;1.10;;
31482;SDS011;18103;52.246;8.052;2022-07-29T08:29:15;2.57;;;1.17;;
31482;SDS011;18103;52.246;8.052;2022-07-29T08:31:41;2.13;;;1.20;;
31482;SDS011;18103;52.246;8.052;2022-07-29T08:34:06;4.70;;;0.90;;
31482;SDS011;18103;52.246;8.052;2022-07-29T08:36:35;1.77;;;1.10;;
31482;SDS011;18103;52.246;8.052;2022-07-29T08:39:00;5.23;;;1.10;;
31482;SDS011;18103;52.246;8.052;2022-07-29T08:41:27;1.57;;;1.27;;
31482;SDS011;18103;52.246;8.052;2022-07-29T08:43:52;4.37;;;1.43;;
31482;SDS011;18103;52.246;8.052;2022-07-29T08:46:18;6.37;;;1.20;;
31482;SDS011;18103;52.246;8.052;2022-07-29T08:48:45;7.57;;;1.30;;
31482;SDS011;18103;52.246;8.052;2022-07-29T08:51:15;8.17;;;1.20;;
31482;SDS011;18103;52.246;8.052;2022-07-29T08:53:43;6.67;;;1.13;;
31482;SDS011;18103;52.246;8.052;2022-07-29T08:56:12;5.23;;;1.20;;
31482;SDS011;18103;52.246;8.052;2022-07-29T08:58:38;5.27;;;0.93;;
31482;SDS011;18103;52.246;8.052;2022-07-29T09:01:04;2.37;;;1.17;;
31482;SDS011;18103;52.246;8.052;2022-07-29T09:03:31;7.13;;;1.27;;
31482;SDS011;18103;52.246;8.052;2022-07-29T09:05:59;5.53;;;1.30;;
31482;SDS011;18103;52.246;8.052;2022-07-29T09:08:25;3.43;;;1.13;;
31482;SDS011;18103;52.246;8.052;2022-07-29T09:10:51;3.30;;;1.20;;
31482;SDS011;18103;52.246;8.052;2022-07-29T09:13:18;6.10;;;1.10;;
31482;SDS011;18103;52.246;8.052;2022-07-29T09:15:43;2.50;;;1.23;;
31482;SDS011;18103;52.246;8.052;2022-07-29T09:18:09;3.50;;;1.00;;
31482;SDS011;18103;52.246;8.052;2022-07-29T09:20:35;7.93;;;1.10;;
31482;SDS011;18103;52.246;8.052;2022-07-29T09:23:19;4.40;;;0.80;;
31482;SDS011;18103;52.246;8.052;2022-07-29T09:25:44;2.20;;;0.93;;
31482;SDS011;18103;52.246;8.052;2022-07-29T09:30:58;3.40;;;1.20;;
31482;SDS011;18103;52.246;8.052;2022-07-29T09:33:33;4.37;;;1.10;;
31482;SDS011;18103;52.246;8.052;2022-07-29T09:36:05;6.80;;;1.40;;
31482;SDS011;18103;52.246;8.052;2022-07-29T09:38:30;6.30;;;1.33;;
31482;SDS011;18103;52.246;8.052;2022-07-29T09:40:57;1.57;;;0.90;;
31482;SDS011;18103;52.246;8.052;2022-07-29T09:43:27;4.73;;;1.03;;
31482;SDS011;18103;52.246;8.052;2022-07-29T09:45:53;2.37;;;1.03;;
31482;SDS011;18103;52.246;8.052;2022-07-29T09:48:19;2.50;;;1.10;;
31482;SDS011;18103;52.246;8.052;2022-07-29T09:50:46;2.63;;;1.13;;
31482;SDS011;18103;52.246;8.052;2022-07-29T09:53:36;4.57;;;1.17;;
31482;SDS011;18103;52.246;8.052;2022-07-29T09:56:02;1.87;;;0.80;;
31482;SDS011;18103;52.246;8.052;2022-07-29T09:58:28;3.50;;;1.17;;
31482;SDS011;18103;52.246;8.052;2022-07-29T10:00:54;8.97;;;1.07;;
31482;SDS011;18103;52.246;8.052;2022-07-29T10:03:21;5.03;;;0.87;;
31482;SDS011;18103;52.246;8.052;2022-07-29T10:06:03;2.57;;;1.00;;
31482;SDS011;18103;52.246;8.052;2022-07-29T10:08:32;3.57;;;1.07;;
31482;SDS011;18103;52.246;8.052;2022-07-29T10:11:11;2.00;;;1.27;;
31482;SDS011;18103;52.246;8.052;2022-07-29T10:13:38;4.00;;;1.30;;
31482;SDS011;18103;52.246;8.052;2022-07-29T10:16:05;5.37;;;1.20;;
31482;SDS011;18103;52.246;8.052;2022-07-29T10:18:31;3.83;;;1.00;;
31482;SDS011;18103;52.246;8.052;2022-07-29T10:20:57;4.80;;;1.10;;
31482;SDS011;18103;52.246;8.052;2022-07-29T10:23:23;4.97;;;1.23;;
31482;SDS011;18103;52.246;8.052;2022-07-29T10:25:49;3.67;;;1.30;;
31482;SDS011;18103;52.246;8.052;2022-07-29T10:28:15;2.60;;;1.20;;
31482;SDS011;18103;52.246;8.052;2022-07-29T10:30:40;7.73;;;1.30;;
31482;SDS011;18103;52.246;8.052;2022-07-29T10:44:25;6.47;;;1.20;;
31482;SDS011;18103;52.246;8.052;2022-07-29T10:46:52;3.40;;;1.00;;
31482;SDS011;18103;52.246;8.052;2022-07-29T10:57:23;8.33;;;1.30;;
31482;SDS011;18103;52.246;8.052;2022-07-29T11:05:07;2.93;;;1.37;;
31482;SDS011;18103;52.246;8.052;2022-07-29T11:08:01;2.60;;;1.13;;
31482;SDS011;18103;52.246;8.052;2022-07-29T11:10:43;5.07;;;1.57;;
31482;SDS011;18103;52.246;8.052;2022-07-29T11:13:09;4.73;;;1.20;;
31482;SDS011;18103;52.246;8.052;2022-07-29T11:15:58;3.87;;;1.20;;
31482;SDS011;18103;52.246;8.052;2022-07-29T11:18:23;8.47;;;1.63;;
31482;SDS011;18103;52.246;8.052;2022-07-29T11:20:49;4.53;;;1.23;;
31482;SDS011;18103;52.246;8.052;2022-07-29T11:25:44;4.73;;;1.33;;
31482;SDS011;18103;52.246;8.052;2022-07-29T11:28:13;6.47;;;1.63;;
31482;SDS011;18103;52.246;8.052;2022-07-29T11:30:49;4.03;;;1.13;;
31482;SDS011;18103;52.246;8.052;2022-07-29T11:33:29;3.07;;;1.20;;
31482;SDS011;18103;52.246;8.052;2022-07-29T11:38:51;4.97;;;1.23;;
31482;SDS011;18103;52.246;8.052;2022-07-29T11:41:26;3.50;;;1.17;;
31482;SDS011;18103;52.246;8.052;2022-07-29T11:44:01;5.70;;;1.80;;
31482;SDS011;18103;52.246;8.052;2022-07-29T11:49:23;9.77;;;1.50;;
31482;SDS011;18103;52.246;8.052;2022-07-29T11:51:51;2.90;;;1.60;;
31482;SDS011;18103;52.246;8.052;2022-07-29T11:54:21;4.43;;;1.33;;
31482;SDS011;18103;52.246;8.052;2022-07-29T11:56:50;6.53;;;1.30;;
31482;SDS011;18103;52.246;8.052;2022-07-29T11:59:16;6.73;;;1.63;;
31482;SDS011;18103;52.246;8.052;2022-07-29T12:01:53;4.80;;;1.33;;
31482;SDS011;18103;52.246;8.052;2022-07-29T12:04:19;4.90;;;1.10;;
31482;SDS011;18103;52.246;8.052;2022-07-29T12:06:52;3.47;;;1.40;;
31482;SDS011;18103;52.246;8.052;2022-07-29T12:09:21;5.17;;;1.40;;
31482;SDS011;18103;52.246;8.052;2022-07-29T12:11:47;4.73;;;1.27;;
31482;SDS011;18103;52.246;8.052;2022-07-29T12:16:51;6.00;;;1.50;;
31482;SDS011;18103;52.246;8.052;2022-07-29T12:19:17;7.20;;;2.40;;
31482;SDS011;18103;52.246;8.052;2022-07-29T12:21:46;3.20;;;1.40;;
31482;SDS011;18103;52.246;8.052;2022-07-29T12:24:13;6.47;;;1.40;;
31482;SDS011;18103;52.246;8.052;2022-07-29T12:26:59;2.43;;;1.43;;
31482;SDS011;18103;52.246;8.052;2022-07-29T12:29:25;4.63;;;1.47;;
31482;SDS011;18103;52.246;8.052;2022-07-29T12:31:53;9.93;;;1.60;;
31482;SDS011;18103;52.246;8.052;2022-07-29T12:34:22;2.40;;;1.43;;
31482;SDS011;18103;52.246;8.052;2022-07-29T12:36:49;11.73;;;1.87;;
31482;SDS011;18103;52.246;8.052;2022-07-29T12:39:18;5.80;;;1.50;;
31482;SDS011;18103;52.246;8.052;2022-07-29T12:41:46;4.83;;;1.40;;
31482;SDS011;18103;52.246;8.052;2022-07-29T12:44:11;3.80;;;1.30;;
31482;SDS011;18103;52.246;8.052;2022-07-29T12:46:37;3.77;;;2.13;;
31482;SDS011;18103;52.246;8.052;2022-07-29T12:49:02;6.83;;;1.50;;
31482;SDS011;18103;52.246;8.052;2022-07-29T12:51:46;3.03;;;1.47;;
31482;SDS011;18103;52.246;8.052;2022-07-29T12:54:12;6.77;;;1.40;;
31482;SDS011;18103;52.246;8.052;2022-07-29T12:56:40;10.40;;;1.53;;
31482;SDS011;18103;52.246;8.052;2022-07-29T13:01:39;7.20;;;1.43;;
31482;SDS011;18103;52.246;8.052;2022-07-29T13:04:04;5.93;;;1.50;;
31482;SDS011;18103;52.246;8.052;2022-07-29T13:09:04;6.70;;;1.40;;
31482;SDS011;18103;52.246;8.052;2022-07-29T13:11:31;6.67;;;1.50;;
31482;SDS011;18103;52.246;8.052;2022-07-29T13:13:58;2.97;;;1.30;;
31482;SDS011;18103;52.246;8.052;2022-07-29T13:16:23;5.13;;;1.37;;
31482;SDS011;18103;52.246;8.052;2022-07-29T13:18:54;11.57;;;1.47;;
31482;SDS011;18103;52.246;8.052;2022-07-29T13:21:32;3.27;;;1.70;;
31482;SDS011;18103;52.246;8.052;2022-07-29T13:23:58;6.67;;;1.60;;
31482;SDS011;18103;52.246;8.052;2022-07-29T13:26:23;8.00;;;1.40;;
31482;SDS011;18103;52.246;8.052;2022-07-29T13:28:48;2.93;;;1.50;;
31482;SDS011;18103;52.246;8.052;2022-07-29T13:31:14;2.50;;;1.50;;
31482;SDS011;18103;52.246;8.052;2022-07-29T13:33:40;10.03;;;2.10;;
31482;SDS011;18103;52.246;8.052;2022-07-29T13:36:06;3.73;;;1.63;;
31482;SDS011;18103;52.246;8.052;2022-07-29T13:38:33;5.67;;;1.67;;
31482;SDS011;18103;52.246;8.052;2022-07-29T13:40:59;6.17;;;1.70;;
31482;SDS011;18103;52.246;8.052;2022-07-29T13:43:26;3.43;;;1.50;;
31482;SDS011;18103;52.246;8.052;2022-07-29T13:45:51;5.30;;;1.70;;
31482;SDS011;18103;52.246;8.052;2022-07-29T13:48:17;6.40;;;1.80;;
31482;SDS011;18103;52.246;8.052;2022-07-29T13:50:42;4.20;;;1.37;;
31482;SDS011;18103;52.246;8.052;2022-07-29T13:53:08;9.47;;;1.80;;
31482;SDS011;18103;52.246;8.052;2022-07-29T13:55:34;5.90;;;1.90;;
31482;SDS011;18103;52.246;8.052;2022-07-29T13:58:00;4.23;;;1.90;;
31482;SDS011;18103;52.246;8.052;2022-07-29T14:00:25;6.07;;;2.10;;
31482;SDS011;18103;52.246;8.052;2022-07-29T14:02:51;6.73;;;1.93;;
31482;SDS011;18103;52.246;8.052;2022-07-29T14:05:17;5.37;;;2.03;;
31482;SDS011;18103;52.246;8.052;2022-07-29T14:07:42;8.37;;;1.83;;
31482;SDS011;18103;52.246;8.052;2022-07-29T14:10:11;3.10;;;1.93;;
31482;SDS011;18103;52.246;8.052;2022-07-29T14:12:36;7.67;;;1.60;;
31482;SDS011;18103;52.246;8.052;2022-07-29T14:15:02;4.00;;;1.57;;
31482;SDS011;18103;52.246;8.052;2022-07-29T14:17:28;9.90;;;2.30;;
31482;SDS011;18103;52.246;8.052;2022-07-29T14:19:53;6.63;;;2.07;;
31482;SDS011;18103;52.246;8.052;2022-07-29T14:22:18;4.37;;;1.80;;
31482;SDS011;18103;52.246;8.052;2022-07-29T14:24:44;5.27;;;1.77;;
31482;SDS011;18103;52.246;8.052;2022-07-29T14:27:09;5.10;;;1.87;;
31482;SDS011;18103;52.246;8.052;2022-07-29T14:29:36;3.67;;;1.73;;
31482;SDS011;18103;52.246;8.052;2022-07-29T14:32:02;5.13;;;1.67;;
31482;SDS011;18103;52.246;8.052;2022-07-29T14:34:27;10.47;;;2.00;;
31482;SDS011;18103;52.246;8.052;2022-07-29T14:36:53;2.97;;;1.43;;
31482;SDS011;18103;52.246;8.052;2022-07-29T14:39:20;7.63;;;1.67;;
31482;SDS011;18103;52.246;8.052;2022-07-29T14:41:49;2.60;;;1.50;;
31482;SDS011;18103;52.246;8.052;2022-07-29T14:44:16;6.13;;;1.50;;
31482;SDS011;18103;52.246;8.052;2022-07-29T14:46:42;10.17;;;2.07;;
31482;SDS011;18103;52.246;8.052;2022-07-29T14:49:10;5.07;;;2.17;;
31482;SDS011;18103;52.246;8.052;2022-07-29T14:51:36;9.77;;;3.20;;
31482;SDS011;18103;52.246;8.052;2022-07-29T14:54:02;5.90;;;3.60;;
31482;SDS011;18103;52.246;8.052;2022-07-29T14:56:27;10.00;;;3.03;;
31482;SDS011;18103;52.246;8.052;2022-07-29T14:58:54;6.17;;;2.93;;
31482;SDS011;18103;52.246;8.052;2022-07-29T15:01:21;5.63;;;2.50;;
31482;SDS011;18103;52.246;8.052;2022-07-29T15:03:46;6.77;;;3.07;;
31482;SDS011;18103;52.246;8.052;2022-07-29T15:06:11;6.37;;;2.30;;
31482;SDS011;18103;52.246;8.052;2022-07-29T15:08:37;8.20;;;2.80;;
31482;SDS011;18103;52.246;8.052;2022-07-29T15:11:02;12.50;;;3.77;;
31482;SDS011;18103;52.246;8.052;2022-07-29T15:13:27;13.57;;;5.20;;
31482;SDS011;18103;52.246;8.052;2022-07-29T15:15:53;7.43;;;3.80;;
31482;SDS011;18103;52.246;8.052;2022-07-29T15:18:18;8.67;;;2.97;;
31482;SDS011;18103;52.246;8.052;2022-07-29T15:20:43;4.63;;;1.97;;
31482;SDS011;18103;52.246;8.052;2022-07-29T15:23:11;2.63;;;1.80;;
31482;SDS011;18103;52.246;8.052;2022-07-29T15:25:37;16.87;;;2.27;;
31482;SDS011;18103;52.246;8.052;2022-07-29T15:28:04;8.37;;;1.40;;
31482;SDS011;18103;52.246;8.052;2022-07-29T15:30:32;5.77;;;1.90;;
31482;SDS011;18103;52.246;8.052;2022-07-29T15:32:58;5.33;;;1.90;;
31482;SDS011;18103;52.246;8.052;2022-07-29T15:35:25;5.70;;;1.83;;
31482;SDS011;18103;52.246;8.052;2022-07-29T15:37:50;6.83;;;1.87;;
31482;SDS011;18103;52.246;8.052;2022-07-29T15:40:18;5.77;;;1.70;;
31482;SDS011;18103;52.246;8.052;2022-07-29T15:42:44;5.17;;;2.00;;
31482;SDS011;18103;52.246;8.052;2022-07-29T15:45:09;10.77;;;2.27;;
31482;SDS011;18103;52.246;8.052;2022-07-29T15:47:35;3.17;;;1.47;;